Time;durP1;ratioP1;P1;durP2;ratioP2;P2;SDS_P1;SDS_P2;PMS_P1;PMS_P2;Temp;Humidity;BMP_temperature;BMP_pressure;BME280_temperature;BME280_humidity;BME280_pressure;Samples;Min_cycle;Max_cycle;Signal;HPM_P1;HPM_P2
2023/07/25 07:08:00;;;;;;;6.90;2.00;;;;;;;15.25;98.47;95526.75;2083535;28;20569;-63
2023/07/25 07:10:05;;;;;;;5.93;1.60;;;;;;;15.43;96.52;95527.91;2083803;28;20585;-63
2023/07/25 07:12:15;;;;;;;8.57;2.20;;;;;;;15.68;95.85;95518.00;2090831;28;21025;-63
2023/07/25 07:14:29;;;;;;;5.13;1.75;;;;;;;15.75;94.45;95516.50;2090686;28;21086;-63
2023/07/25 07:15:31;;;;;;;3.90;1.80;;;;;;;15.82;93.92;95517.69;2089834;28;20185;-63
2023/07/25 07:16:32;;;;;;;3.70;1.67;;;;;;;15.82;93.79;95516.84;2091727;28;20196;-64
2023/07/25 07:17:34;;;;;;;2.97;1.60;;;;;;;15.77;92.56;95516.38;2087254;28;20216;-63
2023/07/25 07:18:35;;;;;;;3.22;1.75;;;;;;;15.84;93.82;95517.56;2083291;28;20236;-63
2023/07/25 07:19:37;;;;;;;3.70;1.80;;;;;;;15.97;93.81;95525.25;2084739;28;20197;-64
2023/07/25 07:20:39;;;;;;;7.35;2.05;;;;;;;16.00;93.64;95528.47;2082073;28;20247;-63
2023/07/25 07:21:40;;;;;;;3.53;1.50;;;;;;;16.02;92.10;95530.97;2083017;28;20228;-63
2023/07/25 07:22:42;;;;;;;5.95;1.60;;;;;;;16.23;92.63;95522.25;2081832;28;20185;-64
2023/07/25 07:23:43;;;;;;;3.47;1.63;;;;;;;16.31;92.33;95525.03;2082007;28;20225;-64
2023/07/25 07:24:45;;;;;;;5.50;2.72;;;;;;;16.30;92.80;95521.59;2082722;28;20629;-64
2023/07/25 07:25:46;;;;;;;5.03;1.73;;;;;;;16.37;93.68;95523.69;2082378;28;20310;-64
2023/07/25 07:26:48;;;;;;;3.50;1.60;;;;;;;16.36;94.01;95520.22;2082552;28;20197;-63
2023/07/25 07:29:13;;;;;;;3.83;1.50;;;;;;;16.25;92.91;95522.94;2081975;28;20586;-64
2023/07/25 07:30:14;;;;;;;2.85;1.30;;;;;;;16.21;93.51;95522.34;2084615;28;20198;-64
2023/07/25 07:31:21;;;;;;;4.57;1.60;;;;;;;16.12;91.90;95520.50;2083082;28;20665;-64
2023/07/25 07:32:23;;;;;;;6.60;1.88;;;;;;;16.21;91.88;95521.53;2079200;28;20201;-63
2023/07/25 07:33:26;;;;;;;2.78;1.50;;;;;;;16.07;92.37;95506.91;2076736;28;20245;-63
2023/07/25 07:34:27;;;;;;;3.13;1.42;;;;;;;16.24;93.50;95518.63;2070820;28;20202;-64
2023/07/25 07:35:29;;;;;;;4.85;1.98;;;;;;;16.44;93.83;95509.88;2071162;28;20780;-63
2023/07/25 07:36:30;;;;;;;3.95;1.63;;;;;;;16.57;93.46;95511.41;2073104;28;20194;-63
2023/07/25 07:37:32;;;;;;;4.00;1.75;;;;;;;16.57;93.79;95512.28;2072475;28;20198;-64
2023/07/25 07:38:35;;;;;;;4.60;1.52;;;;;;;16.65;92.66;95522.13;2074828;28;20226;-64
2023/07/25 07:39:38;;;;;;;5.93;1.92;;;;;;;16.65;93.26;95517.69;2075065;28;20210;-64
2023/07/25 07:40:40;;;;;;;6.88;1.50;;;;;;;16.76;93.04;95508.00;2073591;28;20234;-64
2023/07/25 07:41:41;;;;;;;4.05;2.00;;;;;;;16.96;93.09;95517.69;2073957;28;20194;-64
2023/07/25 07:42:43;;;;;;;3.90;1.80;;;;;;;16.93;91.80;95510.03;2074909;28;20191;-64
2023/07/25 07:43:44;;;;;;;4.15;1.70;;;;;;;17.22;89.91;95518.97;2074448;28;20682;-65
2023/07/25 07:44:46;;;;;;;3.05;1.50;;;;;;;17.42;89.79;95512.75;2073888;28;20745;-65
2023/07/25 07:45:48;;;;;;;6.82;2.13;;;;;;;17.39;89.50;95510.38;2074774;28;20203;-65
2023/07/25 07:46:49;;;;;;;6.07;1.42;;;;;;;17.46;90.47;95519.41;2074717;28;20208;-65
2023/07/25 07:47:51;;;;;;;8.80;1.75;;;;;;;17.55;90.61;95516.91;2074489;28;20203;-65
2023/07/25 07:48:53;;;;;;;3.63;1.80;;;;;;;17.49;90.19;95518.28;2072776;28;20239;-65
2023/07/25 07:49:55;;;;;;;3.65;1.80;;;;;;;17.59;89.67;95520.94;2078115;28;20356;-65
2023/07/25 07:51:02;;;;;;;4.00;1.80;;;;;;;17.91;86.96;95525.06;2078205;28;20293;-65
2023/07/25 07:52:03;;;;;;;6.28;2.22;;;;;;;18.17;83.42;95514.78;2070479;28;20194;-65
2023/07/25 07:53:20;;;;;;;2.95;1.20;;;;;;;18.20;84.51;95517.13;2072682;28;20229;-65
2023/07/25 07:54:21;;;;;;;4.43;1.42;;;;;;;18.16;85.26;95515.75;2072588;28;20199;-66
2023/07/25 07:55:23;;;;;;;4.38;1.80;;;;;;;18.05;82.85;95523.84;2074231;28;20190;-66
2023/07/25 07:56:24;;;;;;;5.03;1.67;;;;;;;18.00;84.03;95513.69;2075660;28;20288;-65
2023/07/25 07:57:28;;;;;;;3.83;1.65;;;;;;;17.95;86.11;95521.19;2074027;28;20209;-66
2023/07/25 07:58:30;;;;;;;4.75;1.70;;;;;;;17.99;86.90;95519.13;2074080;28;20873;-66
2023/07/25 07:59:31;;;;;;;5.53;1.38;;;;;;;17.89;86.31;95521.72;2075206;28;20194;-65
2023/07/25 08:00:33;;;;;;;5.03;1.40;;;;;;;17.92;86.04;95524.09;2072557;28;20260;-66
2023/07/25 08:01:34;;;;;;;5.43;1.90;;;;;;;17.76;86.17;95525.53;2074304;28;20198;-66
2023/07/25 08:02:38;;;;;;;5.38;1.42;;;;;;;17.73;85.47;95517.03;2072632;28;20199;-66
2023/07/25 08:03:39;;;;;;;10.25;2.08;;;;;;;17.74;86.49;95510.78;2074149;28;20229;-65
2023/07/25 08:04:41;;;;;;;4.80;1.80;;;;;;;17.86;86.60;95512.28;2074039;28;20260;-66
2023/07/25 08:05:43;;;;;;;8.20;1.60;;;;;;;17.71;83.87;95509.28;2073145;28;20210;-66
2023/07/25 08:06:44;;;;;;;10.15;1.85;;;;;;;17.85;83.61;95504.50;2074879;28;20202;-66
2023/07/25 08:07:46;;;;;;;3.88;2.00;;;;;;;17.69;83.43;95505.94;2073424;28;20206;-66
2023/07/25 08:08:47;;;;;;;6.63;1.80;;;;;;;17.65;82.11;95509.81;2071973;28;20234;-66
2023/07/25 08:09:53;;;;;;;8.40;1.65;;;;;;;17.58;82.65;95511.34;2073427;28;20216;-66
2023/07/25 08:10:55;;;;;;;12.13;1.90;;;;;;;17.58;83.19;95509.53;2072976;28;20194;-65
2023/07/25 08:11:56;;;;;;;5.22;1.55;;;;;;;17.62;83.92;95513.56;2073719;28;20213;-65
2023/07/25 08:12:58;;;;;;;4.63;1.90;;;;;;;17.69;84.63;95521.75;2073397;28;20202;-66
2023/07/25 08:13:59;;;;;;;4.72;1.77;;;;;;;17.87;84.03;95523.69;2073948;28;20233;-65
2023/07/25 08:15:01;;;;;;;4.80;2.00;;;;;;;17.77;82.29;95513.97;2072724;28;20198;-65
2023/07/25 08:16:05;;;;;;;7.38;2.28;;;;;;;17.75;83.75;95512.44;2070409;28;20198;-65
2023/07/25 08:17:06;;;;;;;10.73;2.08;;;;;;;17.83;83.45;95520.50;2071318;28;20206;-66
2023/07/25 08:18:08;;;;;;;6.15;2.05;;;;;;;17.87;83.67;95507.84;2070670;28;20281;-66
2023/07/25 08:19:09;;;;;;;7.63;2.38;;;;;;;17.87;82.29;95518.41;2072922;28;20194;-65
2023/07/25 08:20:13;;;;;;;3.47;1.60;;;;;;;17.88;82.76;95520.91;2072359;28;20285;-66
2023/07/25 08:21:14;;;;;;;4.85;2.03;;;;;;;17.95;83.22;95522.06;2072742;28;20201;-66
2023/07/25 08:22:16;;;;;;;7.65;2.20;;;;;;;17.94;82.36;95517.75;2072572;28;20248;-66
2023/07/25 08:23:20;;;;;;;6.18;2.03;;;;;;;17.89;83.29;95514.66;2071911;28;20222;-66
2023/07/25 08:24:21;;;;;;;6.88;2.10;;;;;;;17.77;83.91;95502.59;2072616;28;20195;-66
2023/07/25 08:25:23;;;;;;;5.18;2.25;;;;;;;17.64;82.80;95513.44;2071573;28;20817;-65
2023/07/25 08:26:25;;;;;;;3.90;1.40;;;;;;;17.52;83.58;95520.66;2072468;28;20210;-66
2023/07/25 08:27:26;;;;;;;9.35;2.42;;;;;;;17.53;83.63;95524.94;2074596;28;20256;-66
2023/07/25 08:28:28;;;;;;;10.25;2.30;;;;;;;17.50;83.84;95522.59;2072257;28;20456;-66
2023/07/25 08:29:29;;;;;;;2.85;1.55;;;;;;;17.34;82.39;95520.50;2070036;28;20652;-65
2023/07/25 08:30:31;;;;;;;7.80;1.88;;;;;;;17.24;82.35;95512.59;2071263;28;20298;-66
2023/07/25 08:31:32;;;;;;;6.05;1.73;;;;;;;17.18;83.50;95517.56;2070247;28;20203;-65
2023/07/25 08:32:35;;;;;;;3.85;1.80;;;;;;;17.14;83.65;95522.28;2070598;28;20248;-66
2023/07/25 08:33:36;;;;;;;4.55;1.80;;;;;;;17.03;83.50;95522.44;2074621;28;20292;-65
2023/07/25 08:34:39;;;;;;;6.43;2.45;;;;;;;17.00;84.03;95522.69;2076127;28;20229;-65
2023/07/25 08:35:41;;;;;;;3.38;1.50;;;;;;;17.00;84.82;95523.53;2073710;28;20237;-65
2023/07/25 08:36:44;;;;;;;7.07;1.80;;;;;;;16.96;83.99;95516.84;2070240;28;20252;-66
2023/07/25 08:37:45;;;;;;;5.80;1.85;;;;;;;16.91;84.13;95521.69;2070288;28;20245;-65
2023/07/25 08:38:47;;;;;;;4.18;1.65;;;;;;;17.02;84.78;95523.38;2073425;28;20272;-66
2023/07/25 08:39:48;;;;;;;5.10;2.13;;;;;;;17.02;84.62;95513.66;2073231;28;20210;-66
2023/07/25 08:41:15;;;;;;;3.05;1.63;;;;;;;17.05;84.86;95504.63;2068089;28;20670;-65
2023/07/25 08:42:19;;;;;;;4.50;1.75;;;;;;;17.02;85.12;95516.28;2068472;28;20214;-66
2023/07/25 08:43:23;;;;;;;8.38;1.60;;;;;;;17.14;85.56;95515.22;2067779;28;20257;-66
2023/07/25 08:44:26;;;;;;;4.07;1.45;;;;;;;17.14;84.72;95522.28;2067975;28;20581;-65
2023/07/25 08:47:22;;;;;;;4.90;1.65;;;;;;;17.18;84.28;95518.41;2101462;27;20572;-64
2023/07/25 08:48:26;;;;;;;4.75;1.38;;;;;;;17.24;83.84;95511.75;2088610;28;20224;-64
2023/07/25 08:49:33;;;;;;;3.45;1.55;;;;;;;17.34;84.38;95509.13;2080371;28;20197;-64
2023/07/25 08:50:37;;;;;;;5.57;1.83;;;;;;;17.39;83.49;95515.63;2081347;28;20193;-65
2023/07/25 08:51:42;;;;;;;3.00;1.45;;;;;;;17.37;82.41;95511.47;2084509;28;20552;-64
2023/07/25 08:52:49;;;;;;;4.88;1.42;;;;;;;17.53;83.79;95513.56;2081638;28;20598;-65
2023/07/25 08:54:02;;;;;;;4.05;1.85;;;;;;;17.60;82.99;95504.97;2072105;28;20218;-65
2023/07/25 08:55:04;;;;;;;12.65;1.98;;;;;;;17.68;82.75;95514.00;2072020;28;20656;-65
2023/07/25 08:56:06;;;;;;;7.28;1.88;;;;;;;17.57;82.45;95507.03;2074197;28;20256;-65
2023/07/25 08:57:08;;;;;;;2.85;1.40;;;;;;;17.60;83.33;95512.88;2071498;28;20199;-64
2023/07/25 08:58:10;;;;;;;2.40;1.42;;;;;;;17.62;81.12;95508.31;2069798;28;20740;-65
2023/07/25 08:59:12;;;;;;;2.67;1.20;;;;;;;17.69;80.34;95513.03;2068901;28;20194;-64
2023/07/25 09:00:14;;;;;;;8.52;1.58;;;;;;;17.77;80.69;95515.78;2069657;28;20203;-64
2023/07/25 09:01:16;;;;;;;4.40;1.42;;;;;;;17.81;81.09;95509.25;2072151;28;20189;-65
2023/07/25 09:02:19;;;;;;;4.18;1.70;;;;;;;17.92;80.87;95505.63;2069000;28;20575;-65
2023/07/25 09:03:21;;;;;;;2.88;1.60;;;;;;;18.02;81.86;95509.09;2069368;28;20583;-65
2023/07/25 09:04:24;;;;;;;2.85;1.35;;;;;;;18.08;80.53;95513.81;2068586;28;20691;-64
2023/07/25 09:05:27;;;;;;;2.95;1.50;;;;;;;17.94;79.30;95527.44;2070574;28;20243;-65
2023/07/25 09:06:31;;;;;;;3.63;1.20;;;;;;;17.86;78.97;95516.75;2074816;28;20193;-65
2023/07/25 09:07:34;;;;;;;5.05;1.95;;;;;;;17.91;79.66;95519.78;2069992;28;20195;-65
2023/07/25 09:08:35;;;;;;;2.90;1.40;;;;;;;18.08;79.52;95505.91;2073888;28;20340;-65
2023/07/25 09:09:37;;;;;;;3.70;1.40;;;;;;;18.26;79.60;95513.09;2073648;28;20293;-65
2023/07/25 09:10:38;;;;;;;3.47;1.25;;;;;;;18.48;79.45;95514.53;2071361;28;20198;-65
2023/07/25 09:11:40;;;;;;;3.33;1.50;;;;;;;18.65;78.93;95512.94;2070852;28;20289;-65
2023/07/25 09:12:41;;;;;;;2.60;1.10;;;;;;;18.74;77.00;95513.84;2071738;28;20261;-64
2023/07/25 09:13:44;;;;;;;4.30;1.45;;;;;;;18.81;76.57;95507.00;2069750;28;20247;-64
2023/07/25 09:14:46;;;;;;;3.10;1.48;;;;;;;18.85;76.17;95515.47;2072449;28;20658;-66
2023/07/25 09:15:48;;;;;;;2.65;1.20;;;;;;;19.00;75.31;95511.38;2070896;28;20747;-66
2023/07/25 09:16:49;;;;;;;2.97;1.30;;;;;;;18.98;74.73;95512.50;2072665;28;20201;-65
2023/07/25 09:17:53;;;;;;;2.45;1.20;;;;;;;18.91;75.47;95517.56;2071161;28;20194;-65
2023/07/25 09:18:54;;;;;;;7.85;1.88;;;;;;;19.13;74.15;95507.56;2068340;28;20234;-65
2023/07/25 09:19:56;;;;;;;2.65;1.20;;;;;;;19.11;73.09;95509.50;2075416;28;20206;-65
2023/07/25 09:20:58;;;;;;;3.55;1.52;;;;;;;19.23;74.27;95508.31;2071650;28;20199;-65
2023/07/25 09:22:01;;;;;;;4.43;1.52;;;;;;;19.37;73.16;95512.25;2071493;28;20770;-65
2023/07/25 09:23:03;;;;;;;4.18;1.40;;;;;;;19.35;73.11;95508.91;2066447;28;20285;-64
2023/07/25 09:24:04;;;;;;;4.10;1.70;;;;;;;19.44;73.95;95502.75;2073739;28;20204;-65
2023/07/25 09:25:09;;;;;;;4.72;1.92;;;;;;;19.56;73.00;95513.94;2072971;28;20310;-65
2023/07/25 09:26:11;;;;;;;4.38;1.73;;;;;;;19.55;72.86;95509.59;2068302;28;20737;-65
2023/07/25 09:27:17;;;;;;;10.70;1.85;;;;;;;19.45;72.44;95516.81;2067566;28;20310;-65
2023/07/25 09:28:18;;;;;;;3.05;1.30;;;;;;;19.31;72.28;95508.41;2067796;28;20797;-65
2023/07/25 09:29:26;;;;;;;5.10;1.85;;;;;;;19.46;72.08;95505.22;2069846;28;20191;-65
2023/07/25 09:30:28;;;;;;;5.18;1.90;;;;;;;19.23;71.22;95509.13;2067936;28;20209;-65
2023/07/25 09:31:29;;;;;;;8.05;1.83;;;;;;;19.06;71.89;95505.50;2067674;28;20207;-65
2023/07/25 09:32:32;;;;;;;6.15;2.45;;;;;;;19.18;71.17;95505.28;2068948;28;20631;-65
2023/07/25 09:33:34;;;;;;;5.75;2.38;;;;;;;19.17;72.05;95515.06;2068637;28;20239;-66
2023/07/25 09:34:35;;;;;;;6.43;2.33;;;;;;;19.25;70.62;95504.53;2070106;28;20201;-65
2023/07/25 09:35:45;;;;;;;7.20;1.60;;;;;;;19.27;71.05;95506.22;2066800;28;20230;-65
2023/07/25 09:36:47;;;;;;;8.85;2.10;;;;;;;19.41;71.25;95505.69;2070563;28;20199;-65
2023/07/25 09:37:53;;;;;;;4.30;1.95;;;;;;;19.13;71.88;95512.84;2068548;28;20202;-66
2023/07/25 09:38:55;;;;;;;4.53;1.95;;;;;;;18.87;72.03;95509.06;2068093;28;20239;-64
2023/07/25 09:39:56;;;;;;;6.50;1.92;;;;;;;18.73;72.66;95506.91;2066488;28;20191;-64
2023/07/25 09:40:58;;;;;;;6.75;1.92;;;;;;;18.65;72.52;95499.72;2067796;28;20226;-65
2023/07/25 09:42:00;;;;;;;5.50;1.50;;;;;;;18.83;71.58;95490.97;2068623;28;20230;-64
2023/07/25 09:43:01;;;;;;;5.35;1.80;;;;;;;19.21;71.23;95507.63;2067969;28;20620;-64
2023/07/25 09:44:05;;;;;;;4.95;1.70;;;;;;;19.65;70.41;95505.06;2069342;28;20837;-65
2023/07/25 09:45:11;;;;;;;6.55;1.70;;;;;;;19.48;68.18;95505.94;2074017;28;20220;-64
2023/07/25 09:46:13;;;;;;;3.47;1.55;;;;;;;19.60;68.72;95504.69;2068673;28;20321;-64
2023/07/25 09:47:24;;;;;;;7.43;2.05;;;;;;;19.74;68.49;95498.88;2071335;28;20689;-64
2023/07/25 09:48:25;;;;;;;9.23;1.70;;;;;;;19.30;68.81;95497.97;2074408;28;20630;-64
2023/07/25 09:49:27;;;;;;;8.75;1.70;;;;;;;19.23;69.74;95506.50;2067976;28;20278;-65
2023/07/25 09:50:33;;;;;;;4.78;1.50;;;;;;;18.98;70.50;95497.50;2073148;28;20194;-64
2023/07/25 09:51:34;;;;;;;4.22;1.70;;;;;;;18.81;69.28;95495.59;2071536;28;20208;-64
2023/07/25 09:52:41;;;;;;;3.97;1.33;;;;;;;18.66;69.97;95498.72;2070590;28;20206;-64
2023/07/25 09:53:44;;;;;;;4.07;1.80;;;;;;;18.70;69.95;95512.50;2070764;28;20262;-64
2023/07/25 09:54:45;;;;;;;3.35;1.40;;;;;;;18.55;70.01;95493.63;2074420;28;20202;-64
2023/07/25 09:55:47;;;;;;;3.63;1.30;;;;;;;18.54;70.71;95502.56;2074815;28;20194;-64
2023/07/25 09:56:48;;;;;;;3.45;1.20;;;;;;;18.41;69.92;95508.16;2075311;28;20198;-64
2023/07/25 09:57:51;;;;;;;5.63;2.10;;;;;;;18.51;70.25;95501.03;2068077;28;20187;-64
2023/07/25 09:58:54;;;;;;;5.68;1.75;;;;;;;18.56;70.40;95497.94;2062924;28;20727;-64
2023/07/25 10:00:00;;;;;;;6.28;1.60;;;;;;;18.64;69.81;95494.56;2063939;28;20200;-64
2023/07/25 10:01:02;;;;;;;6.28;1.70;;;;;;;18.76;70.13;95491.56;2065366;28;20864;-64
2023/07/25 10:02:04;;;;;;;4.80;1.70;;;;;;;18.83;69.45;95485.69;2063125;28;20216;-64
2023/07/25 10:03:09;;;;;;;5.10;1.65;;;;;;;18.86;68.59;95490.72;2068688;28;20211;-64
2023/07/25 10:04:11;;;;;;;4.90;1.77;;;;;;;18.86;70.13;95496.00;2065326;28;20198;-64
2023/07/25 10:05:14;;;;;;;6.88;1.63;;;;;;;18.83;70.37;95493.63;2063280;28;20606;-64
2023/07/25 10:06:16;;;;;;;4.40;2.00;;;;;;;18.90;71.13;95484.97;2062864;28;20266;-64
2023/07/25 10:07:18;;;;;;;3.40;1.20;;;;;;;19.00;71.23;95499.97;2063572;28;20241;-64
2023/07/25 10:08:21;;;;;;;4.07;1.50;;;;;;;18.96;71.47;95502.09;2062341;28;20231;-64
2023/07/25 10:09:24;;;;;;;4.05;1.70;;;;;;;19.00;69.66;95499.97;2062456;28;20286;-64
2023/07/25 10:10:26;;;;;;;11.20;2.15;;;;;;;18.96;70.18;95498.59;2062523;28;20238;-64
2023/07/25 10:11:28;;;;;;;5.60;1.70;;;;;;;18.92;70.43;95498.09;2062007;28;20293;-64
2023/07/25 10:12:30;;;;;;;6.80;1.77;;;;;;;18.82;69.62;95499.94;2063614;28;20702;-64
2023/07/25 10:13:32;;;;;;;9.48;1.55;;;;;;;18.61;70.16;95493.03;2063349;28;20664;-64
2023/07/25 10:14:38;;;;;;;3.08;1.33;;;;;;;18.86;70.42;95496.00;2066394;28;20199;-64
2023/07/25 10:15:43;;;;;;;6.03;1.45;;;;;;;18.89;70.40;95493.88;2065334;28;20715;-64
2023/07/25 10:16:45;;;;;;;3.38;1.10;;;;;;;18.82;70.60;95498.09;2066121;28;20207;-64
2023/07/25 10:17:47;;;;;;;3.55;1.30;;;;;;;18.57;70.57;95496.97;2068742;28;20290;-64
2023/07/25 10:18:57;;;;;;;4.82;1.42;;;;;;;18.56;71.22;95497.94;2065194;28;20353;-64
2023/07/25 10:19:59;;;;;;;5.22;1.30;;;;;;;18.41;71.66;95495.78;2064907;28;20642;-64
2023/07/25 10:21:01;;;;;;;2.67;1.08;;;;;;;18.46;71.42;95489.22;2062894;28;20287;-64
2023/07/25 10:22:02;;;;;;;4.07;1.25;;;;;;;18.58;72.07;95498.63;2063548;28;20640;-64
2023/07/25 10:23:10;;;;;;;2.40;1.00;;;;;;;18.54;71.56;95500.72;2061995;28;20204;-64
2023/07/25 10:24:12;;;;;;;3.63;1.48;;;;;;;18.56;71.59;95503.22;2065479;28;20210;-64
2023/07/25 10:25:29;;;;;;;2.40;1.10;;;;;;;18.73;72.20;95491.88;2065395;28;20615;-64
2023/07/25 10:26:30;;;;;;;7.05;1.40;;;;;;;18.72;71.45;95497.31;2064285;28;20213;-64
2023/07/25 10:27:33;;;;;;;2.72;1.33;;;;;;;18.66;71.83;95506.66;2065257;28;20212;-64
2023/07/25 10:28:35;;;;;;;10.65;1.30;;;;;;;18.67;71.08;95504.88;2063674;28;20273;-65
2023/07/25 10:29:43;;;;;;;2.30;1.00;;;;;;;18.57;71.86;95504.91;2059282;28;20206;-64
2023/07/25 10:30:46;;;;;;;3.47;1.60;;;;;;;18.43;71.64;95507.03;2059286;28;20768;-63
2023/07/25 10:31:51;;;;;;;2.60;1.23;;;;;;;18.47;72.04;95504.94;2062132;28;20578;-64
2023/07/25 10:33:01;;;;;;;2.72;1.00;;;;;;;18.47;72.18;95515.50;2068205;28;20199;-64
2023/07/25 10:34:04;;;;;;;2.85;1.25;;;;;;;18.49;71.51;95510.09;2068209;28;20271;-64
2023/07/25 10:35:06;;;;;;;2.03;1.02;;;;;;;18.41;72.41;95516.06;2068466;28;20210;-64
2023/07/25 10:36:22;;;;;;;3.50;1.58;;;;;;;18.40;72.58;95515.25;2067943;28;20533;-64
2023/07/25 10:37:28;;;;;;;3.65;1.05;;;;;;;18.50;72.60;95512.59;2067546;28;20289;-64
2023/07/25 10:38:36;;;;;;;3.10;1.08;;;;;;;18.52;72.15;95512.44;2067813;28;20272;-64
2023/07/25 10:39:38;;;;;;;3.38;1.20;;;;;;;18.71;72.24;95508.88;2068136;28;20443;-64
2023/07/25 10:41:11;;;;;;;2.60;1.13;;;;;;;18.75;71.90;95497.88;2064399;28;20861;-64
2023/07/25 10:42:15;;;;;;;2.92;1.23;;;;;;;18.85;72.11;95499.63;2060793;28;20203;-63
2023/07/25 10:43:17;;;;;;;2.30;1.20;;;;;;;19.00;70.93;95495.50;2059478;28;20256;-64
2023/07/25 10:44:37;;;;;;;2.53;1.00;;;;;;;19.32;70.05;95507.41;2061317;28;20222;-64
2023/07/25 10:45:44;;;;;;;2.13;0.90;;;;;;;19.75;69.01;95510.28;2063537;28;20297;-64
2023/07/25 10:46:46;;;;;;;2.83;1.20;;;;;;;19.75;68.46;95505.81;2066175;28;20238;-63
2023/07/25 10:47:49;;;;;;;2.05;1.00;;;;;;;19.71;67.88;95516.88;2067112;28;20702;-64
2023/07/25 10:49:02;;;;;;;3.17;0.90;;;;;;;19.78;67.48;95503.84;2066446;28;20250;-64
2023/07/25 10:50:03;;;;;;;4.97;1.13;;;;;;;19.90;67.13;95494.72;2064521;28;20231;-63
2023/07/25 10:51:07;;;;;;;2.53;1.00;;;;;;;19.87;66.84;95492.34;2064144;28;20216;-64
2023/07/25 10:52:08;;;;;;;4.28;1.33;;;;;;;20.00;67.54;95499.91;2062645;28;20226;-64
2023/07/25 10:53:14;;;;;;;2.60;0.95;;;;;;;19.92;66.58;95508.59;2060560;28;20200;-63
2023/07/25 10:54:17;;;;;;;2.22;1.00;;;;;;;19.74;66.51;95506.81;2067920;28;21070;-64
2023/07/25 10:55:19;;;;;;;3.33;0.93;;;;;;;19.37;67.04;95502.50;2065265;28;20248;-63
2023/07/25 10:56:21;;;;;;;2.63;1.17;;;;;;;19.21;67.96;95507.63;2063724;28;20191;-63
2023/07/25 10:57:24;;;;;;;5.20;1.35;;;;;;;19.58;67.37;95504.84;2063145;28;20196;-65
2023/07/25 10:58:25;;;;;;;2.30;1.00;;;;;;;19.42;68.11;95502.88;2067930;28;20229;-66
2023/07/25 10:59:28;;;;;;;1.85;0.90;;;;;;;19.65;68.48;95502.41;2073575;28;20205;-66
2023/07/25 11:00:36;;;;;;;3.33;0.80;;;;;;;19.78;67.94;95499.38;2072000;28;20201;-66
2023/07/25 11:01:43;;;;;;;1.95;0.88;;;;;;;19.87;67.20;95493.19;2076687;28;20234;-66
2023/07/25 11:02:45;;;;;;;1.80;0.90;;;;;;;20.04;67.26;95494.13;2074950;28;20245;-66
2023/07/25 11:03:47;;;;;;;4.65;1.30;;;;;;;20.55;65.26;95496.91;2074708;28;20558;-66
2023/07/25 11:05:14;;;;;;;2.35;1.08;;;;;;;20.28;66.17;95487.34;2075724;28;20201;-66
2023/07/25 11:06:15;;;;;;;2.80;1.27;;;;;;;20.32;66.45;95490.50;2072968;28;20201;-65
2023/07/25 11:07:17;;;;;;;4.55;1.25;;;;;;;20.48;67.41;95493.25;2072419;28;20255;-66
2023/07/25 11:08:19;;;;;;;2.08;1.00;;;;;;;20.37;67.16;95493.50;2071673;28;20303;-66
2023/07/25 11:09:21;;;;;;;2.22;1.10;;;;;;;20.32;67.32;95491.31;2072914;28;20249;-66
2023/07/25 11:10:27;;;;;;;3.70;1.25;;;;;;;20.21;67.72;95495.09;2073488;28;20196;-67
2023/07/25 11:11:29;;;;;;;2.90;1.25;;;;;;;19.84;65.71;95496.13;2063845;28;20208;-66
2023/07/25 11:12:32;;;;;;;2.22;1.10;;;;;;;19.72;66.09;95497.34;2064921;28;20209;-65
2023/07/25 11:13:35;;;;;;;2.10;0.80;;;;;;;19.79;65.87;95500.22;2073634;28;20224;-66
2023/07/25 11:14:42;;;;;;;10.68;0.95;;;;;;;19.90;65.28;95486.75;2070859;28;20199;-65
2023/07/25 11:15:44;;;;;;;2.13;1.02;;;;;;;19.83;65.55;95506.91;2073843;28;20208;-65
2023/07/25 11:16:50;;;;;;;3.03;1.10;;;;;;;19.88;66.18;95504.63;2071917;28;20208;-66
2023/07/25 11:17:52;;;;;;;4.25;1.00;;;;;;;20.44;65.64;95501.66;2070848;28;20241;-65
2023/07/25 11:18:53;;;;;;;1.95;0.80;;;;;;;20.51;64.72;95503.53;2069914;28;20228;-65
2023/07/25 11:20:11;;;;;;;2.90;1.05;;;;;;;20.60;64.03;95499.09;2070598;28;20582;-66
2023/07/25 11:21:14;;;;;;;2.58;1.00;;;;;;;21.06;63.94;95487.34;2072467;28;20221;-66
2023/07/25 11:22:16;;;;;;;2.92;1.13;;;;;;;21.33;63.36;95483.56;2068442;28;20199;-65
2023/07/25 11:23:20;;;;;;;5.30;1.00;;;;;;;21.29;62.81;95492.88;2075505;28;20224;-66
2023/07/25 11:24:22;;;;;;;3.67;1.10;;;;;;;21.39;62.45;95490.06;2073267;28;20992;-66
2023/07/25 11:25:23;;;;;;;5.22;1.10;;;;;;;21.67;61.33;95486.16;2074257;28;20248;-66
2023/07/25 11:26:25;;;;;;;3.42;1.00;;;;;;;21.23;61.86;95497.03;2071668;28;20221;-66
2023/07/25 11:27:26;;;;;;;1.98;0.80;;;;;;;21.07;61.94;95495.16;2072956;28;20213;-66
2023/07/25 11:28:28;;;;;;;2.83;1.20;;;;;;;21.04;61.61;95491.00;2074187;28;20228;-66
2023/07/25 11:29:30;;;;;;;6.93;1.60;;;;;;;21.45;62.10;95497.38;2073007;28;20202;-66
2023/07/25 11:30:33;;;;;;;6.40;1.30;;;;;;;22.00;60.91;95490.59;2072432;28;20576;-66
2023/07/25 11:31:42;;;;;;;2.65;1.20;;;;;;;22.18;59.00;95495.72;2073273;28;20197;-66
2023/07/25 11:32:48;;;;;;;2.25;1.00;;;;;;;21.82;60.38;95485.47;2071252;28;20561;-65
2023/07/25 11:33:49;;;;;;;2.20;1.05;;;;;;;21.86;59.80;95492.09;2074969;28;20283;-66
2023/07/25 11:34:51;;;;;;;5.00;1.45;;;;;;;22.00;59.99;95498.56;2074006;28;20210;-66
2023/07/25 11:35:53;;;;;;;7.25;1.00;;;;;;;22.02;60.08;95484.13;2073855;28;20206;-66
2023/07/25 11:36:55;;;;;;;2.85;1.23;;;;;;;21.89;61.33;95493.59;2073676;28;20664;-66
2023/07/25 11:38:02;;;;;;;6.53;1.13;;;;;;;21.18;61.48;95502.81;2072362;28;20203;-66
2023/07/25 11:39:04;;;;;;;2.20;1.00;;;;;;;20.69;62.75;95537.09;2071451;28;20213;-66
2023/07/25 11:40:15;;;;;;;5.70;1.00;;;;;;;19.72;65.26;95524.66;2071613;28;20281;-66
2023/07/25 11:41:16;;;;;;;8.48;1.20;;;;;;;19.29;66.47;95536.84;2074424;28;20194;-65
2023/07/25 11:42:18;;;;;;;2.60;1.00;;;;;;;18.87;68.00;95535.50;2073977;28;20191;-66
2023/07/25 11:43:20;;;;;;;2.03;1.00;;;;;;;18.71;69.24;95549.34;2066578;28;20266;-66
2023/07/25 11:44:22;;;;;;;3.47;1.27;;;;;;;18.69;68.79;95546.03;2073499;28;20609;-65
2023/07/25 11:45:24;;;;;;;1.60;0.80;;;;;;;18.40;69.42;95546.97;2071219;28;20193;-66
2023/07/25 11:46:27;;;;;;;4.05;1.27;;;;;;;18.10;70.12;95553.28;2076481;28;20288;-65
2023/07/25 11:47:29;;;;;;;1.77;0.80;;;;;;;17.98;71.18;95559.69;2070738;28;20592;-65
2023/07/25 11:48:31;;;;;;;7.10;1.00;;;;;;;18.05;72.11;95559.00;2071049;28;20562;-65
2023/07/25 11:49:33;;;;;;;2.03;1.02;;;;;;;17.80;73.07;95573.56;2071108;28;20279;-65
2023/07/25 11:50:52;;;;;;;2.30;1.05;;;;;;;17.30;74.22;95562.16;2069396;28;20205;-66
2023/07/25 11:51:54;;;;;;;4.00;1.00;;;;;;;17.04;76.18;95568.91;2070208;28;20602;-65
2023/07/25 11:52:56;;;;;;;12.55;1.10;;;;;;;16.83;76.72;95590.03;2068613;28;20534;-65
2023/07/25 11:53:58;;;;;;;2.25;0.98;;;;;;;16.73;78.17;95579.47;2074307;28;20253;-65
2023/07/25 11:55:01;;;;;;;2.58;0.90;;;;;;;16.27;81.14;95579.78;2073987;28;20202;-65
2023/07/25 12:14:29;;;;;;;4.78;1.40;;;;;;;15.25;96.08;95587.25;2109168;27;20547;-65
2023/07/25 12:16:53;;;;;;;2.92;1.50;;;;;;;15.21;96.08;95591.09;2084031;28;20553;-65
2023/07/25 12:17:55;;;;;;;2.65;1.23;;;;;;;15.42;96.42;95583.28;2080453;28;20661;-65
2023/07/25 12:19:10;;;;;;;7.70;1.45;;;;;;;15.80;96.75;95584.56;2080778;28;20229;-65
2023/07/25 12:20:16;;;;;;;2.25;1.17;;;;;;;15.64;94.14;95584.97;2079993;28;20718;-65
2023/07/25 12:21:31;;;;;;;1.77;0.90;;;;;;;15.96;94.79;95586.78;2078549;28;20201;-65
2023/07/25 12:22:33;;;;;;;2.15;0.85;;;;;;;15.94;93.22;95583.44;2081158;28;20208;-65
2023/07/25 12:23:39;;;;;;;2.75;1.20;;;;;;;15.99;92.66;95578.63;2081863;28;20564;-65
2023/07/25 12:24:40;;;;;;;1.73;0.80;;;;;;;16.06;92.32;95581.59;2080711;28;20224;-66
2023/07/25 12:25:43;;;;;;;5.10;1.02;;;;;;;16.13;93.20;95580.94;2079141;28;20284;-64
2023/07/25 12:26:44;;;;;;;4.38;2.10;;;;;;;16.25;91.40;95589.63;2077404;28;20209;-64
2023/07/25 12:27:49;;;;;;;6.68;2.95;;;;;;;16.04;90.91;95584.34;2081433;28;20282;-64
2023/07/25 12:28:52;;;;;;;2.78;1.40;;;;;;;16.53;91.04;95589.91;2078339;28;20755;-64
2023/07/25 12:29:55;;;;;;;3.15;1.23;;;;;;;16.68;93.75;95593.03;2080037;28;20228;-66
2023/07/25 12:30:57;;;;;;;3.08;1.55;;;;;;;16.86;92.07;95587.97;2078769;28;20193;-65
2023/07/25 12:31:59;;;;;;;3.17;1.25;;;;;;;16.84;87.73;95592.53;2081944;28;20643;-65
2023/07/25 12:33:00;;;;;;;2.63;1.00;;;;;;;17.18;88.79;95592.28;2077380;28;20299;-66